Time;durP1;ratioP1;P1;durP2;ratioP2;P2;SDS_P1;SDS_P2;PMS_P1;PMS_P2;Temp;Humidity;BMP_temperature;BMP_pressure;BME280_temperature;BME280_humidity;BME280_pressure;Samples;Min_cycle;Max_cycle;Signal;HPM_P1;HPM_P2
2021/06/02 00:01:32;;;;;;;;;;;;;;;17.15;53.89;99649.97;5090506;28;20225;-38
2021/06/02 00:03:58;;;;;;;;;;;;;;;17.17;54.41;99653.22;5088847;28;19912;-37
2021/06/02 00:06:24;;;;;;;;;;;;;;;17.05;54.32;99645.28;5090394;28;19912;-37
2021/06/02 00:08:50;;;;;;;;;;;;;;;17.19;53.37;99651.09;5090274;28;19916;-37
2021/06/02 00:11:15;;;;;;;;;;;;;;;17.25;53.72;99652.81;5090308;28;19954;-37
2021/06/02 00:13:40;;;;;;;;;;;;;;;17.33;54.15;99649.69;5090125;28;19946;-37
2021/06/02 00:16:06;;;;;;;;;;;;;;;17.42;53.28;99644.69;5090119;28;19951;-37
2021/06/02 00:18:31;;;;;;;;;;;;;;;17.27;54.16;99647.16;5089002;28;19976;-37
2021/06/02 00:20:56;;;;;;;;;;;;;;;16.99;54.13;99654.34;5090226;28;19956;-37
2021/06/02 00:23:22;;;;;;;;;;;;;;;16.79;55.00;99650.28;5089376;28;19912;-38
2021/06/02 00:25:48;;;;;;;;;;;;;;;16.40;55.53;99658.28;5089413;28;19915;-38
2021/06/02 00:28:14;;;;;;;;;;;;;;;16.58;54.90;99649.16;5089138;28;19916;-38
2021/06/02 00:30:39;;;;;;;;;;;;;;;16.46;55.21;99648.44;5089917;28;19919;-37
2021/06/02 00:33:05;;;;;;;;;;;;;;;16.47;55.38;99638.50;5089401;28;20343;-37
2021/06/02 00:35:30;;;;;;;;;;;;;;;16.69;54.70;99646.63;5089883;28;19918;-37
2021/06/02 00:37:56;;;;;;;;;;;;;;;16.77;55.22;99649.72;5090064;28;19916;-38
2021/06/02 00:40:24;;;;;;;;;;;;;;;16.28;56.02;99654.03;5089950;28;19956;-37
2021/06/02 00:42:49;;;;;;;;;;;;;;;16.08;56.23;99652.63;5088862;28;20122;-38
2021/06/02 00:45:15;;;;;;;;;;;;;;;16.31;56.19;99654.34;5088677;28;20022;-37
2021/06/02 00:47:40;;;;;;;;;;;;;;;15.98;56.50;99650.59;5089961;28;19916;-37
2021/06/02 00:50:05;;;;;;;;;;;;;;;15.93;56.78;99658.53;5088483;28;20030;-37
2021/06/02 00:52:31;;;;;;;;;;;;;;;15.87;57.82;99656.81;5089987;28;19916;-38
2021/06/02 00:54:56;;;;;;;;;;;;;;;15.05;59.18;99629.16;5088782;28;19916;-37
2021/06/02 00:57:21;;;;;;;;;;;;;;;15.05;59.88;99660.50;5090011;28;20019;-37
2021/06/02 00:59:49;;;;;;;;;;;;;;;15.31;58.88;99659.19;5088702;28;19912;-38
2021/06/02 01:02:15;;;;;;;;;;;;;;;15.51;58.57;99657.97;5089811;28;19919;-37
2021/06/02 01:04:41;;;;;;;;;;;;;;;15.24;59.72;99653.94;5088708;28;19912;-38
2021/06/02 01:07:06;;;;;;;;;;;;;;;15.19;59.49;99659.22;5090218;28;19916;-38
2021/06/02 01:09:32;;;;;;;;;;;;;;;15.54;58.39;99663.69;5090584;28;20337;-38
2021/06/02 01:11:57;;;;;;;;;;;;;;;15.88;57.15;99660.31;5088967;28;19916;-38
2021/06/02 01:14:22;;;;;;;;;;;;;;;15.63;58.46;99658.72;5090293;28;19916;-38
2021/06/02 01:16:48;;;;;;;;;;;;;;;15.41;58.92;99662.06;5088800;28;19920;-37
2021/06/02 01:19:13;;;;;;;;;;;;;;;15.43;58.47;99653.81;5093044;28;19912;-37
2021/06/02 01:21:57;;;;;;;;;;;;;;;15.72;57.80;99657.31;5093712;28;19954;-38
2021/06/02 01:24:24;;;;;;;;;;;;;;;15.41;58.85;99661.28;5093783;28;19977;-37
2021/06/02 01:26:52;;;;;;;;;;;;;;;15.89;57.94;99656.59;5094010;28;19919;-37
2021/06/02 01:29:17;;;;;;;;;;;;;;;15.75;58.07;99667.59;5094098;28;20459;-38
2021/06/02 01:31:43;;;;;;;;;;;;;;;15.62;57.55;99657.94;5093778;28;20007;-38
2021/06/02 01:34:08;;;;;;;;;;;;;;;15.54;58.46;99658.31;5093777;28;19943;-38
2021/06/02 01:36:52;;;;;;;;;;;;;;;15.62;58.41;99665.16;5093545;28;19977;-37
2021/06/02 01:39:36;;;;;;;;;;;;;;;15.49;58.48;99658.19;5093349;28;19985;-37
2021/06/02 01:42:10;;;;;;;;;;;;;;;15.82;57.84;99662.06;5093235;28;19912;-37
2021/06/02 01:44:54;;;;;;;;;;;;;;;15.95;57.38;99661.78;5093192;28;19912;-37
2021/06/02 01:47:38;;;;;;;;;;;;;;;15.96;56.84;99657.25;5093590;28;19912;-36
2021/06/02 01:50:15;;;;;;;;;;;;;;;15.65;58.15;99664.72;5093347;28;19908;-37
2021/06/02 01:52:59;;;;;;;;;;;;;;;16.02;56.96;99665.13;5093216;28;20317;-37
2021/06/02 01:55:38;;;;;;;;;;;;;;;15.99;57.48;99660.28;5093471;28;19920;-37
2021/06/02 01:58:03;;;;;;;;;;;;;;;15.81;57.96;99663.97;5091973;28;19913;-37
2021/06/02 02:00:46;;;;;;;;;;;;;;;15.72;58.54;99664.56;5093461;28;20304;-37
2021/06/02 02:03:27;;;;;;;;;;;;;;;16.10;57.02;99663.13;5093146;28;19916;-38
2021/06/02 02:06:01;;;;;;;;;;;;;;;15.67;57.77;99673.31;5093007;28;19960;-37
2021/06/02 02:08:45;;;;;;;;;;;;;;;16.00;57.21;99671.81;5092738;28;19920;-37
2021/06/02 02:11:29;;;;;;;;;;;;;;;16.34;56.69;99671.88;5092923;28;19920;-37
2021/06/02 02:14:13;;;;;;;;;;;;;;;16.00;56.95;99675.31;5092770;28;19942;-37
2021/06/02 02:16:53;;;;;;;;;;;;;;;15.96;57.47;99690.25;5092689;28;19954;-37
2021/06/02 02:19:25;;;;;;;;;;;;;;;15.52;58.94;99675.72;5092792;28;19919;-38
2021/06/02 02:22:02;;;;;;;;;;;;;;;15.84;57.91;99689.50;5093847;28;19994;-36
2021/06/02 02:24:44;;;;;;;;;;;;;;;16.16;56.90;99684.47;5113127;28;19945;-38
2021/06/02 02:27:09;;;;;;;;;;;;;;;15.90;57.87;99696.59;5112870;27;20038;-36
2021/06/02 02:29:40;;;;;;;;;;;;;;;16.09;57.63;99682.97;5111837;28;20018;-37
2021/06/02 02:32:24;;;;;;;;;;;;;;;16.17;57.12;99686.06;5102502;28;19977;-37
2021/06/02 02:35:01;;;;;;;;;;;;;;;16.31;56.89;99689.25;5092678;28;20345;-37
2021/06/02 02:37:31;;;;;;;;;;;;;;;15.55;58.87;99692.13;5092342;28;19923;-37
2021/06/02 02:40:06;;;;;;;;;;;;;;;15.67;58.33;99696.63;5091034;28;19912;-37
2021/06/02 02:42:38;;;;;;;;;;;;;;;16.00;56.90;99694.09;5092350;28;19947;-37
2021/06/02 02:45:14;;;;;;;;;;;;;;;15.75;57.49;99696.31;5092336;28;19969;-37
2021/06/02 02:47:43;;;;;;;;;;;;;;;16.08;55.96;99708.19;5092037;28;19916;-37
2021/06/02 02:50:27;;;;;;;;;;;;;;;16.01;56.21;99706.47;5090714;28;19912;-36
2021/06/02 02:52:55;;;;;;;;;;;;;;;16.14;56.19;99707.22;5091997;28;20356;-38
2021/06/02 02:55:20;;;;;;;;;;;;;;;16.32;55.09;99703.53;5091939;28;19920;-38
2021/06/02 02:57:45;;;;;;;;;;;;;;;16.50;55.14;99702.47;5091810;28;19990;-38
2021/06/02 03:00:11;;;;;;;;;;;;;;;16.25;54.92;99705.53;5092030;28;19912;-39
2021/06/02 03:02:41;;;;;;;;;;;;;;;15.71;57.40;99703.97;5091709;28;19969;-37
2021/06/02 03:05:08;;;;;;;;;;;;;;;15.47;58.13;99705.09;5089903;28;20245;-37
2021/06/02 03:07:34;;;;;;;;;;;;;;;15.56;58.22;99709.84;5091346;28;19951;-37
2021/06/02 03:09:59;;;;;;;;;;;;;;;15.45;57.73;99708.81;5090336;28;19969;-38
2021/06/02 03:12:26;;;;;;;;;;;;;;;15.69;57.39;99707.94;5091365;28;20441;-38
2021/06/02 03:14:56;;;;;;;;;;;;;;;16.08;55.77;99718.94;5089814;28;19951;-38
2021/06/02 03:17:39;;;;;;;;;;;;;;;16.17;55.72;99722.84;5090175;28;20023;-38
2021/06/02 03:20:04;;;;;;;;;;;;;;;15.81;57.39;99717.63;5091259;28;20261;-37
2021/06/02 03:22:42;;;;;;;;;;;;;;;15.99;56.43;99718.47;5099027;28;19998;-38
2021/06/02 03:25:24;;;;;;;;;;;;;;;15.77;57.28;99724.50;5111377;28;19923;-37
2021/06/02 03:27:58;;;;;;;;;;;;;;;15.63;57.71;99729.31;5111220;28;19922;-37
2021/06/02 03:30:31;;;;;;;;;;;;;;;15.73;56.98;99714.47;5110155;28;19912;-38
2021/06/02 03:33:03;;;;;;;;;;;;;;;15.87;56.92;99740.00;5110049;28;20015;-38
2021/06/02 03:36:00;;;;;;;;;;;;;;;16.15;55.44;99749.94;5111209;28;19919;-38
2021/06/02 03:38:41;;;;;;;;;;;;;;;15.61;58.21;99742.16;5098613;28;19912;-38
2021/06/02 03:41:25;;;;;;;;;;;;;;;15.79;57.03;99745.75;5110823;28;19912;-37
2021/06/02 03:43:51;;;;;;;;;;;;;;;16.01;56.72;99756.63;5111121;28;20308;-37
2021/06/02 03:46:35;;;;;;;;;;;;;;;16.20;55.47;99755.41;5109524;28;19945;-37
2021/06/02 03:49:16;;;;;;;;;;;;;;;15.90;56.87;99757.50;5110827;28;20002;-38
2021/06/02 03:51:51;;;;;;;;;;;;;;;16.27;55.74;99766.00;5109732;28;19958;-38
2021/06/02 03:54:22;;;;;;;;;;;;;;;16.21;56.08;99769.63;5109634;28;19998;-37
2021/06/02 03:56:47;;;;;;;;;;;;;;;16.33;55.22;99773.06;5110380;28;19912;-39
2021/06/02 03:59:36;;;;;;;;;;;;;;;16.32;56.01;99767.97;5111085;28;19917;-40
2021/06/02 04:02:19;;;;;;;;;;;;;;;16.46;54.66;99782.72;5099967;28;19911;-38
2021/06/02 04:05:02;;;;;;;;;;;;;;;16.53;55.56;99778.00;5110872;28;20006;-37
2021/06/02 04:07:46;;;;;;;;;;;;;;;16.42;55.54;99785.06;5110835;28;19922;-38
2021/06/02 04:10:12;;;;;;;;;;;;;;;16.53;56.52;99779.91;5110345;28;19947;-39
2021/06/02 04:12:50;;;;;;;;;;;;;;;17.00;61.43;99791.19;5110456;28;20375;-39
2021/06/02 04:15:16;;;;;;;;;;;;;;;17.28;56.08;99786.75;5109242;28;19924;-37
2021/06/02 04:17:41;;;;;;;;;;;;;;;16.65;55.47;99780.63;5110728;28;19912;-37
2021/06/02 04:20:07;;;;;;;;;;;;;;;16.64;58.08;99789.75;5109312;28;19922;-39
2021/06/02 04:22:32;;;;;;;;;;;;;;;16.61;54.38;99784.88;5100236;28;19919;-38
2021/06/02 04:24:58;;;;;;;;;;;;;;;16.84;54.43;99788.50;5089555;28;19964;-51
2021/06/02 04:27:23;;;;;;;;;;;;;;;17.10;53.39;99777.09;5080613;28;19926;-49
2021/06/02 04:29:49;;;;;;;;;;;;;;;16.80;54.69;99788.13;5077414;28;19989;-50
2021/06/02 04:32:14;;;;;;;;;;;;;;;17.17;53.14;99790.34;5089427;28;19916;-49
2021/06/02 04:34:39;;;;;;;;;;;;;;;16.85;55.02;99787.44;5082337;28;19916;-51
2021/06/02 04:37:08;;;;;;;;;;;;;;;16.52;55.48;99802.44;5076030;28;19919;-50
2021/06/02 04:39:34;;;;;;;;;;;;;;;17.06;54.09;99804.69;5069155;28;19920;-52
2021/06/02 04:42:01;;;;;;;;;;;;;;;17.06;53.96;99807.38;5068585;28;19913;-48
2021/06/02 04:44:26;;;;;;;;;;;;;;;17.32;53.79;99806.72;5068941;28;19913;-51
2021/06/02 04:46:52;;;;;;;;;;;;;;;17.08;53.48;99814.16;5069077;28;20348;-38
2021/06/02 04:49:17;;;;;;;;;;;;;;;16.74;54.50;99818.69;5069060;28;19920;-37
2021/06/02 04:52:01;;;;;;;;;;;;;;;16.98;53.56;99825.56;5069476;28;19939;-37
2021/06/02 04:54:32;;;;;;;;;;;;;;;16.85;53.87;99822.38;5072602;28;19920;-38
2021/06/02 04:57:06;;;;;;;;;;;;;;;16.85;54.43;99822.38;5073084;28;19973;-38
2021/06/02 04:59:37;;;;;;;;;;;;;;;17.06;53.21;99826.22;5072543;28;20380;-38
2021/06/02 05:02:21;;;;;;;;;;;;;;;17.24;52.09;99823.28;5072556;28;19932;-37
2021/06/02 05:04:46;;;;;;;;;;;;;;;17.42;52.43;99822.22;5072175;28;20410;-38
2021/06/02 05:07:21;;;;;;;;;;;;;;;17.51;52.40;99819.91;5072098;28;19944;-39
2021/06/02 05:09:55;;;;;;;;;;;;;;;17.52;51.70;99833.13;5072228;28;19912;-37
2021/06/02 05:12:23;;;;;;;;;;;;;;;17.27;52.34;99830.88;5072114;28;20005;-37
2021/06/02 05:14:54;;;;;;;;;;;;;;;17.60;50.77;99826.50;5083698;28;19952;-37
2021/06/02 05:17:38;;;;;;;;;;;;;;;17.09;53.10;99837.28;5090143;28;19926;-38
2021/06/02 05:20:27;;;;;;;;;;;;;;;17.29;52.11;99827.94;5088410;28;19955;-38
2021/06/02 05:22:55;;;;;;;;;;;;;;;16.93;53.12;99833.53;5091861;28;20268;-38
2021/06/02 05:25:41;;;;;;;;;;;;;;;17.15;53.02;99828.28;5092414;27;21336;-38
2021/06/02 05:28:18;;;;;;;;;;;;;;;17.42;52.35;99832.16;5087289;28;19927;-37
2021/06/02 05:30:46;;;;;;;;;;;;;;;17.50;51.80;99837.13;5095697;28;20060;-38
2021/06/02 05:33:14;;;;;;;;;;;;;;;17.74;51.84;99833.16;5097795;28;19991;-38
2021/06/02 05:35:42;;;;;;;;;;;;;;;18.15;50.87;99841.78;5096095;28;19926;-38
2021/06/02 05:38:13;;;;;;;;;;;;;;;18.20;50.53;99843.75;5089407;28;20409;-38
2021/06/02 05:40:44;;;;;;;;;;;;;;;18.27;50.71;99847.03;5088172;28;19920;-37
2021/06/02 05:43:28;;;;;;;;;;;;;;;18.71;49.93;99851.53;5090796;28;19923;-38
2021/06/02 05:46:03;;;;;;;;;;;;;;;18.67;49.28;99848.53;5092148;28;19981;-38
2021/06/02 05:48:39;;;;;;;;;;;;;;;18.81;49.64;99854.38;5091773;28;20384;-37
2021/06/02 05:51:17;;;;;;;;;;;;;;;19.00;48.50;99849.44;5090589;28;19912;-38
2021/06/02 05:53:48;;;;;;;;;;;;;;;19.26;47.41;99853.13;5091811;28;19912;-38
2021/06/02 05:56:32;;;;;;;;;;;;;;;19.56;47.51;99864.44;5091532;28;20006;-38
2021/06/02 05:59:00;;;;;;;;;;;;;;;19.49;47.01;99868.13;5091724;28;19923;-38
2021/06/02 06:01:35;;;;;;;;;;;;;;;19.01;48.52;99863.72;5091792;28;20014;-38
2021/06/02 06:04:13;;;;;;;;;;;;;;;18.54;49.82;99862.41;5090040;28;20017;-38
2021/06/02 06:06:43;;;;;;;;;;;;;;;18.63;49.67;99860.91;5091205;28;19983;-37
2021/06/02 06:09:09;;;;;;;;;;;;;;;19.14;48.63;99874.09;5090987;28;19949;-38
2021/06/02 06:11:53;;;;;;;;;;;;;;;18.91;49.10;99875.25;5091625;28;20022;-39
2021/06/02 06:14:18;;;;;;;;;;;;;;;18.94;48.42;99882.78;5091827;28;20368;-38
2021/06/02 06:17:02;;;;;;;;;;;;;;;19.45;47.53;99877.03;5091429;28;19950;-38
2021/06/02 06:19:32;;;;;;;;;;;;;;;19.20;48.12;99886.53;5083808;28;19951;-37
2021/06/02 06:22:09;;;;;;;;;;;;;;;18.68;48.90;99890.63;5090385;28;20446;-37
2021/06/02 06:24:37;;;;;;;;;;;;;;;18.88;48.42;99887.31;5089994;28;19970;-39
2021/06/02 06:27:07;;;;;;;;;;;;;;;18.98;48.22;99883.91;5089564;28;19912;-39
2021/06/02 06:29:36;;;;;;;;;;;;;;;19.07;48.19;99885.06;5089291;28;19916;-38
2021/06/02 06:32:01;;;;;;;;;;;;;;;19.80;46.83;99881.06;5090758;28;19935;-38
2021/06/02 06:34:30;;;;;;;;;;;;;;;19.58;47.15;99884.69;5090566;28;20380;-38
2021/06/02 06:36:55;;;;;;;;;;;;;;;19.83;46.52;99878.66;5091189;28;19976;-38
2021/06/02 06:39:39;;;;;;;;;;;;;;;20.40;45.58;99874.31;5090687;28;20256;-38
2021/06/02 06:42:04;;;;;;;;;;;;;;;20.96;44.07;99889.91;5070430;28;19913;-39
2021/06/02 06:44:30;;;;;;;;;;;;;;;20.38;43.85;99884.59;5087617;28;20009;-50
2021/06/02 06:46:55;;;;;;;;;;;;;;;20.94;43.66;99888.53;5096753;28;19919;-51
2021/06/02 06:49:22;;;;;;;;;;;;;;;20.88;43.75;99893.13;5106467;28;19946;-38
2021/06/02 06:51:52;;;;;;;;;;;;;;;21.09;43.84;99892.06;5093862;28;19925;-50
2021/06/02 06:54:17;;;;;;;;;;;;;;;21.52;42.64;99891.03;5103914;28;20322;-50
2021/06/02 06:56:43;;;;;;;;;;;;;;;21.56;42.47;99890.19;5099780;28;19916;-51
2021/06/02 06:59:09;;;;;;;;;;;;;;;21.60;41.73;99896.69;5111233;28;19912;-49
2021/06/02 07:01:37;;;;;;;;;;;;;;;21.69;42.35;99885.31;5109470;28;19911;-53
2021/06/02 07:04:02;;;;;;;;;;;;;;;21.38;42.86;99894.25;5111066;28;19999;-50
2021/06/02 07:06:27;;;;;;;;;;;;;;;22.34;42.12;99890.81;5107179;28;19962;-50
2021/06/02 07:08:52;;;;;;;;;;;;;;;22.04;41.25;99887.91;5089141;28;19955;-49
2021/06/02 07:11:18;;;;;;;;;;;;;;;22.16;40.82;99887.63;5090409;28;19919;-51
2021/06/02 07:13:46;;;;;;;;;;;;;;;21.37;41.23;99892.59;5090320;28;19912;-49
2021/06/02 07:16:12;;;;;;;;;;;;;;;21.23;41.78;99886.13;5088385;28;20023;-50
2021/06/02 07:18:38;;;;;;;;;;;;;;;21.18;41.86;99892.34;5089952;28;19980;-51
2021/06/02 07:21:04;;;;;;;;;;;;;;;21.45;41.67;99896.69;5104588;28;19911;-52
2021/06/02 07:23:29;;;;;;;;;;;;;;;22.04;41.23;99895.22;5109899;28;19912;-52
2021/06/02 07:25:54;;;;;;;;;;;;;;;21.63;41.81;99887.22;5092150;28;20344;-51
2021/06/02 07:28:25;;;;;;;;;;;;;;;21.73;41.65;99887.19;5103791;28;19957;-50
2021/06/02 07:30:51;;;;;;;;;;;;;;;21.62;42.63;99899.13;5099473;28;19916;-51
2021/06/02 07:33:16;;;;;;;;;;;;;;;21.12;43.59;99898.03;5095131;28;20387;-51
2021/06/02 07:35:41;;;;;;;;;;;;;;;22.01;42.09;99899.31;5106167;28;20235;-51
2021/06/02 07:38:08;;;;;;;;;;;;;;;21.39;42.34;99885.03;5094075;28;19915;-50
2021/06/02 07:40:33;;;;;;;;;;;;;;;22.05;41.36;99910.41;5104211;28;19912;-50
2021/06/02 07:42:58;;;;;;;;;;;;;;;22.77;40.63;99893.81;5089233;28;19995;-49
2021/06/02 07:45:24;;;;;;;;;;;;;;;22.27;41.85;99904.66;5104795;28;19951;-49
2021/06/02 07:47:49;;;;;;;;;;;;;;;22.42;41.54;99901.06;5092232;28;20365;-48
2021/06/02 07:50:14;;;;;;;;;;;;;;;22.83;41.56;99907.09;5103863;28;19912;-49
2021/06/02 07:52:40;;;;;;;;;;;;;;;23.32;40.36;99901.88;5098120;28;19991;-51
2021/06/02 07:55:05;;;;;;;;;;;;;;;24.11;38.72;99898.97;5094880;28;19919;-48
2021/06/02 07:57:31;;;;;;;;;;;;;;;24.07;38.45;99897.94;5088782;28;20351;-50
2021/06/02 07:59:56;;;;;;;;;;;;;;;24.81;37.29;99900.25;5089493;28;19920;-49
2021/06/02 08:02:21;;;;;;;;;;;;;;;24.88;36.43;99903.41;5089072;28;19912;-49
2021/06/02 08:04:47;;;;;;;;;;;;;;;24.96;35.99;99897.31;5089627;28;19919;-49
2021/06/02 08:07:12;;;;;;;;;;;;;;;25.15;36.20;99906.28;5089032;28;19912;-49
2021/06/02 08:09:38;;;;;;;;;;;;;;;25.82;34.12;99905.16;5089328;28;19943;-51
2021/06/02 08:12:05;;;;;;;;;;;;;;;25.93;33.72;99906.59;5089665;28;19916;-52
2021/06/02 08:14:31;;;;;;;;;;;;;;;25.60;34.48;99899.56;5089234;28;20407;-51
2021/06/02 08:16:56;;;;;;;;;;;;;;;26.16;34.00;99898.53;5089046;28;20035;-50
2021/06/02 08:19:22;;;;;;;;;;;;;;;25.57;33.74;99900.97;5089360;28;20030;-49
2021/06/02 08:21:47;;;;;;;;;;;;;;;24.02;36.23;99884.41;5091415;28;19916;-49
2021/06/02 08:24:13;;;;;;;;;;;;;;;25.09;35.74;99887.56;5110046;28;19916;-46
2021/06/02 08:26:38;;;;;;;;;;;;;;;25.83;34.84;99895.06;5110393;28;19923;-50
2021/06/02 08:29:04;;;;;;;;;;;;;;;26.56;31.78;99897.97;5113798;28;19916;-48
2021/06/02 08:31:29;;;;;;;;;;;;;;;27.19;30.29;99905.28;5113780;28;20059;-49
2021/06/02 08:33:55;;;;;;;;;;;;;;;27.09;29.84;99900.03;5113842;28;19912;-52
2021/06/02 08:36:20;;;;;;;;;;;;;;;27.03;28.74;99909.47;5113760;28;19919;-48
2021/06/02 08:38:45;;;;;;;;;;;;;;;27.54;28.27;99902.78;5113669;28;20295;-38
2021/06/02 08:41:10;;;;;;;;;;;;;;;27.70;27.42;99894.97;5113525;28;19961;-38
2021/06/02 08:43:36;;;;;;;;;;;;;;;28.39;27.50;99899.13;5112321;28;19941;-38
2021/06/02 08:46:01;;;;;;;;;;;;;;;27.28;29.14;99897.97;5113707;28;19912;-38
2021/06/02 08:48:26;;;;;;;;;;;;;;;26.61;28.16;99897.88;5113661;28;19922;-38
2021/06/02 08:50:52;;;;;;;;;;;;;;;26.23;29.91;99898.91;5113558;28;19973;-38
2021/06/02 08:53:17;;;;;;;;;;;;;;;26.21;29.71;99898.41;5113870;28;19915;-39
2021/06/02 08:55:45;;;;;;;;;;;;;;;26.87;29.53;99892.66;5113475;28;19916;-39
2021/06/02 08:58:10;;;;;;;;;;;;;;;26.57;30.22;99891.41;5113730;28;19916;-38
2021/06/02 09:00:35;;;;;;;;;;;;;;;27.66;28.10;99886.63;5113110;28;20336;-39
2021/06/02 09:03:00;;;;;;;;;;;;;;;28.13;27.19;99885.38;5113088;28;19922;-38
2021/06/02 09:05:26;;;;;;;;;;;;;;;28.78;27.03;99891.94;5112975;28;20027;-38
2021/06/02 09:07:52;;;;;;;;;;;;;;;28.45;26.87;99882.22;5112639;28;20048;-39
2021/06/02 09:10:17;;;;;;;;;;;;;;;28.82;25.43;99876.47;5112658;28;19918;-39
2021/06/02 09:12:42;;;;;;;;;;;;;;;29.21;25.08;99878.22;5112873;27;19972;-38
2021/06/02 09:15:09;;;;;;;;;;;;;;;28.52;25.86;99886.44;5112478;28;19951;-38
2021/06/02 09:17:52;;;;;;;;;;;;;;;28.18;26.14;99877.00;5111737;28;19912;-38
2021/06/02 09:20:50;;;;;;;;;;;;;;;28.76;25.81;99884.03;5111817;27;19916;-37
2021/06/02 09:23:27;;;;;;;;;;;;;;;29.90;25.02;99881.91;5099181;28;19979;-38
2021/06/02 09:25:57;;;;;;;;;;;;;;;30.16;24.61;99880.97;5109594;28;20344;-49
2021/06/02 09:28:22;;;;;;;;;;;;;;;29.04;24.99;99870.00;5091814;28;20021;-49
2021/06/02 09:30:48;;;;;;;;;;;;;;;28.79;25.85;99874.38;5091415;28;19960;-48
2021/06/02 09:33:13;;;;;;;;;;;;;;;28.77;26.14;99874.69;5091998;28;19912;-51
2021/06/02 09:35:39;;;;;;;;;;;;;;;28.35;26.17;99874.31;5090097;28;19920;-49
2021/06/02 09:38:05;;;;;;;;;;;;;;;28.58;25.84;99868.75;5091627;28;19919;-47
2021/06/02 09:40:33;;;;;;;;;;;;;;;28.46;26.38;99872.06;5091068;28;19942;-49
2021/06/02 09:42:59;;;;;;;;;;;;;;;29.14;26.04;99874.38;5092167;28;19931;-48
2021/06/02 09:45:24;;;;;;;;;;;;;;;29.24;26.04;99874.84;5091566;28;19912;-48
2021/06/02 09:48:02;;;;;;;;;;;;;;;29.04;25.78;99878.22;5091372;28;19920;-48
2021/06/02 09:50:29;;;;;;;;;;;;;;;29.04;25.61;99878.22;5090880;28;19920;-49
2021/06/02 09:52:54;;;;;;;;;;;;;;;28.38;27.65;99873.66;5091340;28;20406;-50
2021/06/02 09:55:21;;;;;;;;;;;;;;;28.45;27.19;99857.59;5091443;28;19912;-46
2021/06/02 09:57:47;;;;;;;;;;;;;;;29.07;27.21;99858.38;5091184;28;19920;-48
2021/06/02 10:00:13;;;;;;;;;;;;;;;29.17;26.28;99860.03;5091382;28;19912;-48
2021/06/02 10:02:38;;;;;;;;;;;;;;;28.18;27.22;99858.66;5091343;28;20016;-48
2021/06/02 10:05:04;;;;;;;;;;;;;;;28.31;26.56;99858.84;5091417;28;19949;-49
2021/06/02 10:07:29;;;;;;;;;;;;;;;27.86;26.78;99859.84;5091420;28;20034;-49
2021/06/02 10:09:55;;;;;;;;;;;;;;;28.71;26.85;99862.31;5091466;28;20351;-49
2021/06/02 10:12:20;;;;;;;;;;;;;;;29.33;26.73;99858.38;5090080;28;19915;-49
2021/06/02 10:14:54;;;;;;;;;;;;;;;28.58;27.19;99855.84;5091729;28;20276;-49
2021/06/02 10:17:27;;;;;;;;;;;;;;;28.94;26.84;99851.16;5091365;28;20121;-49
2021/06/02 10:19:52;;;;;;;;;;;;;;;29.29;26.82;99854.69;5091201;28;19912;-48
2021/06/02 10:22:18;;;;;;;;;;;;;;;28.05;28.66;99849.47;5097578;28;20010;-49
2021/06/02 10:24:44;;;;;;;;;;;;;;;27.57;27.72;99836.56;5111604;28;19915;-49
2021/06/02 10:27:09;;;;;;;;;;;;;;;26.78;29.67;99839.91;5111732;28;19912;-49
2021/06/02 10:29:35;;;;;;;;;;;;;;;27.78;28.98;99839.53;5111410;28;19916;-48
2021/06/02 10:32:00;;;;;;;;;;;;;;;28.47;27.65;99832.63;5111250;28;19977;-49
2021/06/02 10:34:25;;;;;;;;;;;;;;;28.82;26.91;99827.97;5110968;28;20252;-49
2021/06/02 10:36:50;;;;;;;;;;;;;;;28.85;27.75;99832.00;5111178;28;20011;-51
2021/06/02 10:39:16;;;;;;;;;;;;;;;27.60;29.02;99835.91;5109684;28;19916;-51
2021/06/02 10:41:50;;;;;;;;;;;;;;;28.17;28.81;99837.91;5111307;28;19954;-51
2021/06/02 10:44:17;;;;;;;;;;;;;;;28.53;28.56;99842.31;5110070;28;19912;-51
2021/06/02 10:46:43;;;;;;;;;;;;;;;27.53;29.27;99846.53;5111286;28;20698;-51
2021/06/02 10:49:09;;;;;;;;;;;;;;;26.54;30.63;99838.25;5110658;28;19920;-48
2021/06/02 10:51:36;;;;;;;;;;;;;;;26.06;31.77;99849.66;5110174;28;20303;-47
2021/06/02 10:54:07;;;;;;;;;;;;;;;25.82;32.29;99837.00;5111083;28;19961;-46
2021/06/02 10:56:32;;;;;;;;;;;;;;;26.07;32.01;99837.63;5110984;28;20272;-50
2021/06/02 10:58:58;;;;;;;;;;;;;;;26.06;32.42;99825.91;5111284;28;19942;-51
2021/06/02 11:01:23;;;;;;;;;;;;;;;26.38;31.76;99845.97;5111353;28;19911;-52
2021/06/02 11:04:08;;;;;;;;;;;;;;;26.19;31.65;99842.56;5111463;28;19966;-50
2021/06/02 11:06:35;;;;;;;;;;;;;;;26.40;31.51;99848.38;5111779;28;19912;-52
2021/06/02 11:09:00;;;;;;;;;;;;;;;26.89;30.97;99831.16;5111578;28;19964;-51
2021/06/02 11:11:25;;;;;;;;;;;;;;;26.73;30.72;99829.91;5111722;28;19925;-51
2021/06/02 11:14:09;;;;;;;;;;;;;;;26.53;30.44;99826.50;5111566;28;20390;-51
2021/06/02 11:16:37;;;;;;;;;;;;;;;26.60;31.16;99833.50;5111583;28;20407;-51
2021/06/02 11:19:12;;;;;;;;;;;;;;;27.14;29.83;99828.91;5111613;28;20372;-51
2021/06/02 11:21:57;;;;;;;;;;;;;;;26.95;30.45;99829.13;5111470;28;20316;-50
2021/06/02 11:24:36;;;;;;;;;;;;;;;26.36;31.55;99833.75;5111276;28;20057;-51
2021/06/02 11:27:10;;;;;;;;;;;;;;;27.21;30.28;99836.69;5111383;28;19915;-50
2021/06/02 11:29:36;;;;;;;;;;;;;;;27.44;30.47;99829.28;5111238;28;19916;-51
2021/06/02 11:32:34;;;;;;;;;;;;;;;27.49;29.33;99823.66;5110164;28;19919;-38
2021/06/02 11:35:06;;;;;;;;;;;;;;;27.50;29.58;99828.00;5099000;28;20399;-38
2021/06/02 11:37:32;;;;;;;;;;;;;;;27.86;29.28;99827.03;5111384;28;20011;-47
2021/06/02 11:39:58;;;;;;;;;;;;;;;28.05;28.57;99824.84;5094420;28;20379;-39
2021/06/02 11:42:33;;;;;;;;;;;;;;;28.00;28.68;99816.78;5090272;28;19965;-39
2021/06/02 11:44:59;;;;;;;;;;;;;;;28.51;28.30;99824.59;5090081;28;20323;-38
2021/06/02 11:47:25;;;;;;;;;;;;;;;28.63;27.58;99816.56;5089462;28;20448;-37
2021/06/02 11:49:50;;;;;;;;;;;;;;;28.24;28.32;99810.09;5089191;28;19920;-38
2021/06/02 11:52:17;;;;;;;;;;;;;;;27.85;28.88;99814.47;5089708;28;20319;-36
2021/06/02 11:54:52;;;;;;;;;;;;;;;26.88;29.74;99815.91;5089745;28;20358;-38
2021/06/02 11:57:36;;;;;;;;;;;;;;;27.21;29.43;99826.56;5089624;28;19989;-38
2021/06/02 12:00:12;;;;;;;;;;;;;;;27.47;29.86;99818.53;5089146;28;19912;-38
2021/06/02 12:02:37;;;;;;;;;;;;;;;28.28;28.19;99811.06;5089151;28;19912;-39
2021/06/02 12:05:15;;;;;;;;;;;;;;;28.45;28.28;99810.25;5089385;28;19912;-38
2021/06/02 12:07:47;;;;;;;;;;;;;;;27.79;28.52;99813.00;5089465;28;20049;-37
2021/06/02 12:10:12;;;;;;;;;;;;;;;27.57;28.42;99811.97;5089191;28;19912;-38
2021/06/02 12:12:41;;;;;;;;;;;;;;;28.71;27.62;99807.56;5089318;28;19918;-37
2021/06/02 12:15:06;;;;;;;;;;;;;;;28.41;27.95;99810.09;5089208;28;19943;-38
2021/06/02 12:17:32;;;;;;;;;;;;;;;27.81;28.72;99808.03;5089169;28;20388;-38
2021/06/02 12:19:57;;;;;;;;;;;;;;;27.31;28.47;99800.94;5089646;28;19927;-38
2021/06/02 12:22:23;;;;;;;;;;;;;;;27.96;28.53;99799.41;5096257;28;19938;-38
2021/06/02 12:25:26;;;;;;;;;;;;;;;28.31;27.73;99793.19;5099889;28;20422;-38
2021/06/02 12:27:55;;;;;;;;;;;;;;;28.34;27.21;99798.03;5046268;28;19998;-38
2021/06/02 12:30:24;;;;;;;;;;;;;;;28.30;27.13;99799.78;5046263;28;20438;-38
2021/06/02 12:32:53;;;;;;;;;;;;;;;28.40;26.74;99783.84;5067133;28;19923;-38
2021/06/02 12:35:28;;;;;;;;;;;;;;;27.88;27.06;99787.34;5088668;28;19923;-38
2021/06/02 12:38:07;;;;;;;;;;;;;;;26.90;28.72;99791.00;5086234;28;20375;-38
2021/06/02 12:40:33;;;;;;;;;;;;;;;26.82;29.48;99797.22;5088614;28;20038;-37
2021/06/02 12:42:58;;;;;;;;;;;;;;;26.93;29.56;99795.88;5088747;28;19949;-38
2021/06/02 12:45:24;;;;;;;;;;;;;;;27.31;29.63;99800.94;5087254;28;19999;-39
2021/06/02 12:47:50;;;;;;;;;;;;;;;26.65;30.01;99793.25;5088357;28;19916;-38
2021/06/02 12:50:34;;;;;;;;;;;;;;;27.86;28.68;99794.22;5089041;28;20024;-37
2021/06/02 12:52:59;;;;;;;;;;;;;;;28.30;27.98;99792.38;5088972;28;19912;-39
2021/06/02 12:55:24;;;;;;;;;;;;;;;28.54;27.58;99785.63;5088910;28;19954;-38
2021/06/02 12:57:57;;;;;;;;;;;;;;;29.20;27.17;99797.16;5088907;28;19912;-38
2021/06/02 13:00:22;;;;;;;;;;;;;;;28.64;27.70;99788.06;5088380;28;19986;-38
2021/06/02 13:02:48;;;;;;;;;;;;;;;28.75;27.37;99783.88;5088258;28;20347;-39